sensor_id;sensor_type;location;lat;lon;timestamp;P1;durP1;ratioP1;P2;durP2;ratioP2
74908;SDS011;63468;52.058;4.824;2023-04-25T00:01:57;15.20;;;5.35;;
74908;SDS011;63468;52.058;4.824;2023-04-25T00:04:22;14.40;;;4.70;;
74908;SDS011;63468;52.058;4.824;2023-04-25T00:06:47;18.60;;;6.15;;
74908;SDS011;63468;52.058;4.824;2023-04-25T00:09:13;14.07;;;5.53;;
74908;SDS011;63468;52.058;4.824;2023-04-25T00:11:40;13.18;;;5.18;;
74908;SDS011;63468;52.058;4.824;2023-04-25T00:14:05;13.15;;;5.70;;
74908;SDS011;63468;52.058;4.824;2023-04-25T00:16:31;16.02;;;6.10;;
74908;SDS011;63468;52.058;4.824;2023-04-25T00:18:59;13.30;;;5.00;;
74908;SDS011;63468;52.058;4.824;2023-04-25T00:21:24;14.90;;;5.25;;
74908;SDS011;63468;52.058;4.824;2023-04-25T00:23:50;16.05;;;5.15;;
74908;SDS011;63468;52.058;4.824;2023-04-25T00:26:17;16.77;;;5.28;;
74908;SDS011;63468;52.058;4.824;2023-04-25T00:28:42;18.63;;;5.72;;
74908;SDS011;63468;52.058;4.824;2023-04-25T00:31:07;16.52;;;5.78;;
74908;SDS011;63468;52.058;4.824;2023-04-25T00:33:33;13.60;;;4.70;;
74908;SDS011;63468;52.058;4.824;2023-04-25T00:35:58;19.40;;;5.93;;
74908;SDS011;63468;52.058;4.824;2023-04-25T00:38:23;13.35;;;5.40;;
74908;SDS011;63468;52.058;4.824;2023-04-25T00:40:49;10.90;;;5.18;;
74908;SDS011;63468;52.058;4.824;2023-04-25T00:43:14;18.92;;;5.30;;
74908;SDS011;63468;52.058;4.824;2023-04-25T00:45:40;14.00;;;4.78;;
74908;SDS011;63468;52.058;4.824;2023-04-25T00:48:05;24.50;;;4.90;;
74908;SDS011;63468;52.058;4.824;2023-04-25T00:50:32;9.93;;;5.00;;
74908;SDS011;63468;52.058;4.824;2023-04-25T00:52:58;16.15;;;5.75;;
74908;SDS011;63468;52.058;4.824;2023-04-25T00:55:23;14.38;;;5.50;;
74908;SDS011;63468;52.058;4.824;2023-04-25T00:57:49;13.35;;;5.10;;
74908;SDS011;63468;52.058;4.824;2023-04-25T01:00:15;12.85;;;5.47;;
74908;SDS011;63468;52.058;4.824;2023-04-25T01:02:41;21.05;;;5.97;;
74908;SDS011;63468;52.058;4.824;2023-04-25T01:05:07;17.42;;;5.85;;
74908;SDS011;63468;52.058;4.824;2023-04-25T01:07:33;22.38;;;5.75;;
74908;SDS011;63468;52.058;4.824;2023-04-25T01:09:59;17.58;;;5.30;;
74908;SDS011;63468;52.058;4.824;2023-04-25T01:12:24;14.95;;;5.78;;
74908;SDS011;63468;52.058;4.824;2023-04-25T01:14:49;15.13;;;5.95;;
74908;SDS011;63468;52.058;4.824;2023-04-25T01:17:15;17.42;;;6.10;;
74908;SDS011;63468;52.058;4.824;2023-04-25T01:19:41;16.85;;;6.05;;
74908;SDS011;63468;52.058;4.824;2023-04-25T01:22:06;18.50;;;5.65;;
74908;SDS011;63468;52.058;4.824;2023-04-25T01:24:32;12.48;;;5.05;;
74908;SDS011;63468;52.058;4.824;2023-04-25T01:26:57;14.20;;;5.45;;
74908;SDS011;63468;52.058;4.824;2023-04-25T01:29:23;19.02;;;5.75;;
74908;SDS011;63468;52.058;4.824;2023-04-25T01:31:49;15.10;;;5.45;;
74908;SDS011;63468;52.058;4.824;2023-04-25T01:34:16;19.70;;;5.35;;
74908;SDS011;63468;52.058;4.824;2023-04-25T01:36:41;10.85;;;5.22;;
74908;SDS011;63468;52.058;4.824;2023-04-25T01:39:07;16.13;;;4.95;;
74908;SDS011;63468;52.058;4.824;2023-04-25T01:41:32;20.20;;;5.38;;
74908;SDS011;63468;52.058;4.824;2023-04-25T01:43:59;23.60;;;5.70;;
74908;SDS011;63468;52.058;4.824;2023-04-25T01:46:25;14.98;;;5.40;;
74908;SDS011;63468;52.058;4.824;2023-04-25T01:48:50;14.23;;;5.38;;
74908;SDS011;63468;52.058;4.824;2023-04-25T01:51:16;17.58;;;6.03;;
74908;SDS011;63468;52.058;4.824;2023-04-25T01:53:41;16.00;;;5.53;;
74908;SDS011;63468;52.058;4.824;2023-04-25T01:56:07;12.75;;;4.95;;
74908;SDS011;63468;52.058;4.824;2023-04-25T01:58:32;13.35;;;5.03;;
74908;SDS011;63468;52.058;4.824;2023-04-25T02:00:58;12.95;;;5.65;;
74908;SDS011;63468;52.058;4.824;2023-04-25T02:03:23;13.23;;;4.43;;
74908;SDS011;63468;52.058;4.824;2023-04-25T02:05:48;16.00;;;5.00;;
74908;SDS011;63468;52.058;4.824;2023-04-25T02:08:16;14.68;;;5.60;;
74908;SDS011;63468;52.058;4.824;2023-04-25T02:10:41;21.58;;;5.32;;
74908;SDS011;63468;52.058;4.824;2023-04-25T02:13:07;10.73;;;4.40;;
74908;SDS011;63468;52.058;4.824;2023-04-25T02:15:32;13.90;;;5.00;;
74908;SDS011;63468;52.058;4.824;2023-04-25T02:17:57;16.02;;;4.85;;
74908;SDS011;63468;52.058;4.824;2023-04-25T02:20:25;17.00;;;5.43;;
74908;SDS011;63468;52.058;4.824;2023-04-25T02:22:50;15.90;;;5.25;;
74908;SDS011;63468;52.058;4.824;2023-04-25T02:25:17;12.18;;;4.72;;
74908;SDS011;63468;52.058;4.824;2023-04-25T02:27:44;18.67;;;5.40;;
74908;SDS011;63468;52.058;4.824;2023-04-25T02:30:10;10.43;;;4.75;;
74908;SDS011;63468;52.058;4.824;2023-04-25T02:32:36;11.55;;;4.65;;
74908;SDS011;63468;52.058;4.824;2023-04-25T02:35:01;10.25;;;4.93;;
74908;SDS011;63468;52.058;4.824;2023-04-25T02:37:30;13.40;;;5.15;;
74908;SDS011;63468;52.058;4.824;2023-04-25T02:39:56;16.45;;;5.30;;
74908;SDS011;63468;52.058;4.824;2023-04-25T02:42:21;14.40;;;5.45;;
74908;SDS011;63468;52.058;4.824;2023-04-25T02:44:47;12.35;;;5.60;;
74908;SDS011;63468;52.058;4.824;2023-04-25T02:47:12;12.15;;;5.15;;
74908;SDS011;63468;52.058;4.824;2023-04-25T02:49:37;13.48;;;5.97;;
74908;SDS011;63468;52.058;4.824;2023-04-25T02:52:03;12.45;;;5.63;;
74908;SDS011;63468;52.058;4.824;2023-04-25T02:54:28;15.80;;;5.65;;
74908;SDS011;63468;52.058;4.824;2023-04-25T02:56:53;16.40;;;5.65;;
74908;SDS011;63468;52.058;4.824;2023-04-25T02:59:19;14.25;;;5.03;;
74908;SDS011;63468;52.058;4.824;2023-04-25T03:01:44;14.02;;;6.05;;
74908;SDS011;63468;52.058;4.824;2023-04-25T03:04:10;12.57;;;5.07;;
74908;SDS011;63468;52.058;4.824;2023-04-25T03:06:35;11.82;;;4.70;;
74908;SDS011;63468;52.058;4.824;2023-04-25T03:09:00;12.02;;;4.78;;
74908;SDS011;63468;52.058;4.824;2023-04-25T03:11:26;13.50;;;4.97;;
74908;SDS011;63468;52.058;4.824;2023-04-25T03:13:51;10.90;;;4.68;;
74908;SDS011;63468;52.058;4.824;2023-04-25T03:16:17;14.70;;;5.13;;
74908;SDS011;63468;52.058;4.824;2023-04-25T03:18:42;15.88;;;5.05;;
74908;SDS011;63468;52.058;4.824;2023-04-25T03:21:08;17.35;;;4.88;;
74908;SDS011;63468;52.058;4.824;2023-04-25T03:23:33;12.85;;;4.47;;
74908;SDS011;63468;52.058;4.824;2023-04-25T03:25:58;15.15;;;4.78;;
74908;SDS011;63468;52.058;4.824;2023-04-25T03:28:24;18.88;;;5.00;;
74908;SDS011;63468;52.058;4.824;2023-04-25T03:30:49;11.60;;;4.93;;
74908;SDS011;63468;52.058;4.824;2023-04-25T03:33:14;11.80;;;4.15;;
74908;SDS011;63468;52.058;4.824;2023-04-25T03:35:40;12.82;;;4.45;;
74908;SDS011;63468;52.058;4.824;2023-04-25T03:38:05;15.07;;;4.28;;
74908;SDS011;63468;52.058;4.824;2023-04-25T03:40:30;16.08;;;4.32;;
74908;SDS011;63468;52.058;4.824;2023-04-25T03:42:56;17.25;;;4.53;;
74908;SDS011;63468;52.058;4.824;2023-04-25T03:45:21;8.75;;;3.70;;
74908;SDS011;63468;52.058;4.824;2023-04-25T03:47:46;11.70;;;4.35;;
74908;SDS011;63468;52.058;4.824;2023-04-25T03:50:12;10.88;;;4.25;;
74908;SDS011;63468;52.058;4.824;2023-04-25T03:52:37;11.95;;;4.25;;
74908;SDS011;63468;52.058;4.824;2023-04-25T03:55:02;17.83;;;4.65;;
74908;SDS011;63468;52.058;4.824;2023-04-25T03:57:29;11.02;;;4.40;;
74908;SDS011;63468;52.058;4.824;2023-04-25T03:59:54;11.32;;;4.47;;
74908;SDS011;63468;52.058;4.824;2023-04-25T04:02:20;11.57;;;4.07;;
74908;SDS011;63468;52.058;4.824;2023-04-25T04:04:45;12.88;;;4.60;;
74908;SDS011;63468;52.058;4.824;2023-04-25T04:07:10;10.52;;;4.05;;
74908;SDS011;63468;52.058;4.824;2023-04-25T04:09:36;18.15;;;4.70;;
74908;SDS011;63468;52.058;4.824;2023-04-25T04:12:01;10.77;;;3.80;;
74908;SDS011;63468;52.058;4.824;2023-04-25T04:14:26;8.15;;;3.60;;
74908;SDS011;63468;52.058;4.824;2023-04-25T04:16:52;11.30;;;4.63;;
74908;SDS011;63468;52.058;4.824;2023-04-25T04:19:17;12.55;;;4.30;;
74908;SDS011;63468;52.058;4.824;2023-04-25T04:21:43;10.07;;;4.03;;
74908;SDS011;63468;52.058;4.824;2023-04-25T04:24:08;13.30;;;3.70;;
74908;SDS011;63468;52.058;4.824;2023-04-25T04:26:33;10.32;;;3.92;;
74908;SDS011;63468;52.058;4.824;2023-04-25T04:28:59;11.10;;;4.13;;
74908;SDS011;63468;52.058;4.824;2023-04-25T04:31:25;12.85;;;4.20;;
74908;SDS011;63468;52.058;4.824;2023-04-25T04:33:50;13.25;;;3.75;;
74908;SDS011;63468;52.058;4.824;2023-04-25T04:36:16;14.50;;;3.90;;
74908;SDS011;63468;52.058;4.824;2023-04-25T04:38:44;16.38;;;4.22;;
74908;SDS011;63468;52.058;4.824;2023-04-25T04:41:10;9.57;;;4.00;;
74908;SDS011;63468;52.058;4.824;2023-04-25T04:43:35;12.50;;;3.72;;
74908;SDS011;63468;52.058;4.824;2023-04-25T04:46:01;11.93;;;3.60;;
74908;SDS011;63468;52.058;4.824;2023-04-25T04:48:28;10.23;;;3.85;;
74908;SDS011;63468;52.058;4.824;2023-04-25T04:50:53;7.55;;;3.25;;
74908;SDS011;63468;52.058;4.824;2023-04-25T04:53:19;17.17;;;4.80;;
74908;SDS011;63468;52.058;4.824;2023-04-25T04:55:44;8.75;;;3.58;;
74908;SDS011;63468;52.058;4.824;2023-04-25T04:58:09;10.85;;;3.80;;
74908;SDS011;63468;52.058;4.824;2023-04-25T05:00:34;9.23;;;3.25;;
74908;SDS011;63468;52.058;4.824;2023-04-25T05:03:00;7.53;;;3.42;;
74908;SDS011;63468;52.058;4.824;2023-04-25T05:05:25;9.98;;;3.65;;
74908;SDS011;63468;52.058;4.824;2023-04-25T05:07:51;11.52;;;3.70;;
74908;SDS011;63468;52.058;4.824;2023-04-25T05:10:17;10.02;;;3.83;;
74908;SDS011;63468;52.058;4.824;2023-04-25T05:12:42;10.93;;;4.43;;
74908;SDS011;63468;52.058;4.824;2023-04-25T05:15:08;8.55;;;3.70;;
74908;SDS011;63468;52.058;4.824;2023-04-25T05:17:33;9.90;;;4.43;;
74908;SDS011;63468;52.058;4.824;2023-04-25T05:19:59;10.90;;;4.38;;
74908;SDS011;63468;52.058;4.824;2023-04-25T05:22:24;12.88;;;4.32;;
74908;SDS011;63468;52.058;4.824;2023-04-25T05:24:50;9.40;;;4.00;;
74908;SDS011;63468;52.058;4.824;2023-04-25T05:27:17;9.90;;;4.45;;
74908;SDS011;63468;52.058;4.824;2023-04-25T05:29:42;12.07;;;4.93;;
74908;SDS011;63468;52.058;4.824;2023-04-25T05:32:08;12.82;;;4.18;;
74908;SDS011;63468;52.058;4.824;2023-04-25T05:34:34;17.80;;;6.88;;
74908;SDS011;63468;52.058;4.824;2023-04-25T05:36:59;14.35;;;4.38;;
74908;SDS011;63468;52.058;4.824;2023-04-25T05:39:25;9.25;;;4.50;;
74908;SDS011;63468;52.058;4.824;2023-04-25T05:41:51;10.75;;;4.22;;
74908;SDS011;63468;52.058;4.824;2023-04-25T05:44:16;9.55;;;4.15;;
74908;SDS011;63468;52.058;4.824;2023-04-25T05:46:41;14.48;;;4.53;;
74908;SDS011;63468;52.058;4.824;2023-04-25T05:49:07;13.77;;;4.93;;
74908;SDS011;63468;52.058;4.824;2023-04-25T05:51:32;10.35;;;4.00;;
74908;SDS011;63468;52.058;4.824;2023-04-25T05:53:57;10.45;;;4.60;;
74908;SDS011;63468;52.058;4.824;2023-04-25T05:56:23;16.08;;;5.55;;
74908;SDS011;63468;52.058;4.824;2023-04-25T05:58:48;14.82;;;6.00;;
74908;SDS011;63468;52.058;4.824;2023-04-25T06:01:13;10.65;;;6.00;;
74908;SDS011;63468;52.058;4.824;2023-04-25T06:03:39;9.68;;;5.05;;
74908;SDS011;63468;52.058;4.824;2023-04-25T06:06:07;11.55;;;5.70;;
74908;SDS011;63468;52.058;4.824;2023-04-25T06:08:33;13.98;;;5.18;;
74908;SDS011;63468;52.058;4.824;2023-04-25T06:10:58;11.95;;;5.38;;
74908;SDS011;63468;52.058;4.824;2023-04-25T06:13:23;10.00;;;5.75;;
74908;SDS011;63468;52.058;4.824;2023-04-25T06:15:49;16.08;;;5.85;;
74908;SDS011;63468;52.058;4.824;2023-04-25T06:18:14;10.68;;;4.90;;
74908;SDS011;63468;52.058;4.824;2023-04-25T06:20:40;12.30;;;5.68;;
74908;SDS011;63468;52.058;4.824;2023-04-25T06:23:05;13.43;;;5.05;;
74908;SDS011;63468;52.058;4.824;2023-04-25T06:25:30;15.23;;;5.40;;
74908;SDS011;63468;52.058;4.824;2023-04-25T06:27:55;16.70;;;5.03;;
74908;SDS011;63468;52.058;4.824;2023-04-25T06:30:21;11.05;;;4.93;;
74908;SDS011;63468;52.058;4.824;2023-04-25T06:32:50;13.70;;;4.88;;
74908;SDS011;63468;52.058;4.824;2023-04-25T06:35:15;10.90;;;4.90;;
74908;SDS011;63468;52.058;4.824;2023-04-25T06:37:41;10.55;;;6.18;;
74908;SDS011;63468;52.058;4.824;2023-04-25T06:40:06;12.27;;;5.63;;
74908;SDS011;63468;52.058;4.824;2023-04-25T06:42:32;12.43;;;5.47;;
74908;SDS011;63468;52.058;4.824;2023-04-25T06:44:57;9.00;;;5.18;;
74908;SDS011;63468;52.058;4.824;2023-04-25T06:47:23;8.90;;;5.45;;
74908;SDS011;63468;52.058;4.824;2023-04-25T06:49:48;12.27;;;4.90;;
74908;SDS011;63468;52.058;4.824;2023-04-25T06:52:13;10.00;;;5.45;;
74908;SDS011;63468;52.058;4.824;2023-04-25T06:54:39;14.20;;;5.88;;
74908;SDS011;63468;52.058;4.824;2023-04-25T06:57:04;12.00;;;5.68;;
74908;SDS011;63468;52.058;4.824;2023-04-25T06:59:30;12.23;;;5.38;;
74908;SDS011;63468;52.058;4.824;2023-04-25T07:01:55;10.00;;;5.05;;
74908;SDS011;63468;52.058;4.824;2023-04-25T07:04:20;12.75;;;5.40;;
74908;SDS011;63468;52.058;4.824;2023-04-25T07:06:46;18.10;;;5.40;;
74908;SDS011;63468;52.058;4.824;2023-04-25T07:09:13;9.02;;;4.60;;
74908;SDS011;63468;52.058;4.824;2023-04-25T07:11:38;11.95;;;5.95;;
74908;SDS011;63468;52.058;4.824;2023-04-25T07:14:04;11.95;;;5.47;;
74908;SDS011;63468;52.058;4.824;2023-04-25T07:16:29;11.32;;;5.68;;
74908;SDS011;63468;52.058;4.824;2023-04-25T07:18:55;8.45;;;4.85;;
74908;SDS011;63468;52.058;4.824;2023-04-25T07:21:20;12.82;;;5.32;;
74908;SDS011;63468;52.058;4.824;2023-04-25T07:23:45;16.65;;;5.30;;
74908;SDS011;63468;52.058;4.824;2023-04-25T07:26:11;10.10;;;5.03;;
74908;SDS011;63468;52.058;4.824;2023-04-25T07:28:36;15.27;;;5.30;;
74908;SDS011;63468;52.058;4.824;2023-04-25T07:31:02;8.70;;;4.88;;
74908;SDS011;63468;52.058;4.824;2023-04-25T07:33:27;13.57;;;5.03;;
74908;SDS011;63468;52.058;4.824;2023-04-25T07:35:53;11.32;;;4.50;;
74908;SDS011;63468;52.058;4.824;2023-04-25T07:38:18;11.80;;;5.10;;
74908;SDS011;63468;52.058;4.824;2023-04-25T07:40:43;11.57;;;5.10;;
74908;SDS011;63468;52.058;4.824;2023-04-25T07:43:09;15.77;;;6.10;;
74908;SDS011;63468;52.058;4.824;2023-04-25T07:45:37;12.35;;;6.00;;
74908;SDS011;63468;52.058;4.824;2023-04-25T07:48:02;14.30;;;6.25;;
74908;SDS011;63468;52.058;4.824;2023-04-25T07:50:28;10.43;;;5.88;;
74908;SDS011;63468;52.058;4.824;2023-04-25T07:52:53;11.85;;;6.45;;
74908;SDS011;63468;52.058;4.824;2023-04-25T07:55:18;11.80;;;6.80;;
74908;SDS011;63468;52.058;4.824;2023-04-25T07:57:44;14.88;;;6.40;;
74908;SDS011;63468;52.058;4.824;2023-04-25T08:00:09;12.73;;;6.40;;
74908;SDS011;63468;52.058;4.824;2023-04-25T08:02:36;10.10;;;6.13;;
74908;SDS011;63468;52.058;4.824;2023-04-25T08:05:02;12.52;;;6.32;;
74908;SDS011;63468;52.058;4.824;2023-04-25T08:07:27;9.18;;;6.40;;
74908;SDS011;63468;52.058;4.824;2023-04-25T08:09:53;14.55;;;6.30;;
74908;SDS011;63468;52.058;4.824;2023-04-25T08:12:19;10.35;;;6.03;;
74908;SDS011;63468;52.058;4.824;2023-04-25T08:14:44;12.65;;;7.00;;
74908;SDS011;63468;52.058;4.824;2023-04-25T08:17:09;11.77;;;7.05;;
74908;SDS011;63468;52.058;4.824;2023-04-25T08:19:35;11.52;;;5.80;;
74908;SDS011;63468;52.058;4.824;2023-04-25T08:22:00;10.70;;;5.40;;
74908;SDS011;63468;52.058;4.824;2023-04-25T08:24:26;12.43;;;5.25;;
74908;SDS011;63468;52.058;4.824;2023-04-25T08:26:51;11.57;;;5.30;;
74908;SDS011;63468;52.058;4.824;2023-04-25T08:29:16;12.32;;;5.38;;
74908;SDS011;63468;52.058;4.824;2023-04-25T08:31:42;14.27;;;7.10;;
74908;SDS011;63468;52.058;4.824;2023-04-25T08:34:07;10.38;;;6.40;;
74908;SDS011;63468;52.058;4.824;2023-04-25T08:36:32;10.00;;;6.65;;
74908;SDS011;63468;52.058;4.824;2023-04-25T08:38:58;14.25;;;6.60;;
74908;SDS011;63468;52.058;4.824;2023-04-25T08:41:23;9.50;;;7.35;;
74908;SDS011;63468;52.058;4.824;2023-04-25T08:43:49;10.43;;;6.90;;
74908;SDS011;63468;52.058;4.824;2023-04-25T08:46:16;13.85;;;7.28;;
74908;SDS011;63468;52.058;4.824;2023-04-25T08:48:43;12.68;;;7.53;;
74908;SDS011;63468;52.058;4.824;2023-04-25T08:51:10;9.77;;;6.15;;
74908;SDS011;63468;52.058;4.824;2023-04-25T08:53:46;13.55;;;5.45;;
74908;SDS011;63468;52.058;4.824;2023-04-25T08:56:14;10.07;;;7.07;;
74908;SDS011;63468;52.058;4.824;2023-04-25T08:58:42;10.07;;;5.80;;
74908;SDS011;63468;52.058;4.824;2023-04-25T09:01:09;11.43;;;5.70;;
74908;SDS011;63468;52.058;4.824;2023-04-25T09:03:34;13.70;;;8.85;;
74908;SDS011;63468;52.058;4.824;2023-04-25T09:06:00;11.32;;;9.73;;
74908;SDS011;63468;52.058;4.824;2023-04-25T09:08:26;14.40;;;9.95;;
74908;SDS011;63468;52.058;4.824;2023-04-25T09:10:51;11.77;;;8.57;;
74908;SDS011;63468;52.058;4.824;2023-04-25T09:13:23;12.75;;;8.50;;
74908;SDS011;63468;52.058;4.824;2023-04-25T09:15:51;13.57;;;8.25;;
74908;SDS011;63468;52.058;4.824;2023-04-25T09:18:24;10.90;;;7.97;;
74908;SDS011;63468;52.058;4.824;2023-04-25T09:20:51;13.07;;;7.30;;
74908;SDS011;63468;52.058;4.824;2023-04-25T09:23:18;11.00;;;7.38;;
74908;SDS011;63468;52.058;4.824;2023-04-25T09:25:46;7.97;;;7.13;;
74908;SDS011;63468;52.058;4.824;2023-04-25T09:28:13;8.38;;;6.40;;
74908;SDS011;63468;52.058;4.824;2023-04-25T09:30:38;8.48;;;6.85;;
74908;SDS011;63468;52.058;4.824;2023-04-25T09:33:07;10.23;;;6.95;;
74908;SDS011;63468;52.058;4.824;2023-04-25T09:35:36;9.05;;;7.30;;
74908;SDS011;63468;52.058;4.824;2023-04-25T09:38:07;8.98;;;6.63;;
74908;SDS011;63468;52.058;4.824;2023-04-25T09:40:33;10.95;;;6.88;;
74908;SDS011;63468;52.058;4.824;2023-04-25T09:42:58;9.05;;;6.38;;
74908;SDS011;63468;52.058;4.824;2023-04-25T09:45:24;8.73;;;6.43;;
74908;SDS011;63468;52.058;4.824;2023-04-25T09:47:49;8.75;;;6.63;;
74908;SDS011;63468;52.058;4.824;2023-04-25T09:50:15;10.65;;;7.60;;
74908;SDS011;63468;52.058;4.824;2023-04-25T09:52:41;9.80;;;7.82;;
74908;SDS011;63468;52.058;4.824;2023-04-25T09:55:06;8.98;;;8.05;;
74908;SDS011;63468;52.058;4.824;2023-04-25T09:57:32;9.65;;;8.18;;
74908;SDS011;63468;52.058;4.824;2023-04-25T09:59:58;8.65;;;7.85;;
74908;SDS011;63468;52.058;4.824;2023-04-25T10:02:25;11.43;;;8.43;;
74908;SDS011;63468;52.058;4.824;2023-04-25T10:04:52;9.75;;;8.18;;
74908;SDS011;63468;52.058;4.824;2023-04-25T10:07:20;13.57;;;8.10;;
74908;SDS011;63468;52.058;4.824;2023-04-25T10:09:50;10.82;;;8.00;;
74908;SDS011;63468;52.058;4.824;2023-04-25T10:12:24;10.65;;;7.93;;
74908;SDS011;63468;52.058;4.824;2023-04-25T10:14:51;12.52;;;7.90;;
74908;SDS011;63468;52.058;4.824;2023-04-25T10:17:17;13.70;;;7.82;;
74908;SDS011;63468;52.058;4.824;2023-04-25T10:19:43;9.70;;;7.95;;
74908;SDS011;63468;52.058;4.824;2023-04-25T10:22:15;9.98;;;7.93;;
74908;SDS011;63468;52.058;4.824;2023-04-25T10:25:02;9.40;;;7.95;;
74908;SDS011;63468;52.058;4.824;2023-04-25T10:27:29;10.77;;;8.85;;
74908;SDS011;63468;52.058;4.824;2023-04-25T10:30:05;10.30;;;8.32;;
74908;SDS011;63468;52.058;4.824;2023-04-25T10:32:35;9.65;;;8.65;;
74908;SDS011;63468;52.058;4.824;2023-04-25T10:35:10;10.18;;;8.38;;
74908;SDS011;63468;52.058;4.824;2023-04-25T10:37:37;9.43;;;8.45;;
74908;SDS011;63468;52.058;4.824;2023-04-25T10:40:09;14.68;;;8.82;;
74908;SDS011;63468;52.058;4.824;2023-04-25T10:42:35;13.25;;;8.70;;
74908;SDS011;63468;52.058;4.824;2023-04-25T10:45:01;12.43;;;8.82;;
74908;SDS011;63468;52.058;4.824;2023-04-25T10:47:35;12.32;;;7.78;;
74908;SDS011;63468;52.058;4.824;2023-04-25T10:50:04;14.52;;;7.13;;
74908;SDS011;63468;52.058;4.824;2023-04-25T10:52:33;12.35;;;8.07;;
74908;SDS011;63468;52.058;4.824;2023-04-25T10:54:58;15.00;;;6.88;;
74908;SDS011;63468;52.058;4.824;2023-04-25T10:57:40;10.55;;;7.07;;
74908;SDS011;63468;52.058;4.824;2023-04-25T11:02:37;10.23;;;7.50;;
74908;SDS011;63468;52.058;4.824;2023-04-25T11:05:03;8.60;;;6.88;;
74908;SDS011;63468;52.058;4.824;2023-04-25T11:07:42;9.38;;;7.05;;
74908;SDS011;63468;52.058;4.824;2023-04-25T11:10:11;13.07;;;6.60;;
74908;SDS011;63468;52.058;4.824;2023-04-25T11:12:36;9.93;;;6.95;;
74908;SDS011;63468;52.058;4.824;2023-04-25T11:15:05;9.85;;;7.20;;
74908;SDS011;63468;52.058;4.824;2023-04-25T11:17:31;8.65;;;7.18;;
74908;SDS011;63468;52.058;4.824;2023-04-25T11:19:57;10.20;;;7.10;;
74908;SDS011;63468;52.058;4.824;2023-04-25T11:22:22;8.98;;;8.02;;
74908;SDS011;63468;52.058;4.824;2023-04-25T11:24:48;9.73;;;8.13;;
74908;SDS011;63468;52.058;4.824;2023-04-25T11:27:13;9.30;;;8.40;;
74908;SDS011;63468;52.058;4.824;2023-04-25T11:29:39;9.63;;;8.30;;
74908;SDS011;63468;52.058;4.824;2023-04-25T11:32:05;12.45;;;8.60;;
74908;SDS011;63468;52.058;4.824;2023-04-25T11:34:31;9.77;;;7.68;;
74908;SDS011;63468;52.058;4.824;2023-04-25T11:37:00;14.20;;;7.03;;
74908;SDS011;63468;52.058;4.824;2023-04-25T11:39:26;10.60;;;8.60;;
74908;SDS011;63468;52.058;4.824;2023-04-25T11:41:53;11.73;;;9.57;;
74908;SDS011;63468;52.058;4.824;2023-04-25T11:44:18;9.45;;;8.55;;
74908;SDS011;63468;52.058;4.824;2023-04-25T11:46:44;10.57;;;7.82;;
74908;SDS011;63468;52.058;4.824;2023-04-25T11:49:11;9.60;;;8.48;;
74908;SDS011;63468;52.058;4.824;2023-04-25T11:51:44;12.65;;;8.05;;
74908;SDS011;63468;52.058;4.824;2023-04-25T11:54:10;11.40;;;6.65;;
74908;SDS011;63468;52.058;4.824;2023-04-25T11:56:36;12.20;;;8.02;;
74908;SDS011;63468;52.058;4.824;2023-04-25T11:59:03;12.73;;;7.55;;
74908;SDS011;63468;52.058;4.824;2023-04-25T12:01:30;9.93;;;8.40;;
74908;SDS011;63468;52.058;4.824;2023-04-25T12:03:55;12.77;;;7.55;;
74908;SDS011;63468;52.058;4.824;2023-04-25T12:06:26;9.18;;;8.10;;
74908;SDS011;63468;52.058;4.824;2023-04-25T12:09:00;9.27;;;8.27;;
74908;SDS011;63468;52.058;4.824;2023-04-25T12:11:26;10.88;;;8.85;;
74908;SDS011;63468;52.058;4.824;2023-04-25T12:13:51;11.55;;;8.45;;
74908;SDS011;63468;52.058;4.824;2023-04-25T12:16:18;9.63;;;8.70;;
74908;SDS011;63468;52.058;4.824;2023-04-25T12:18:43;9.93;;;6.55;;
74908;SDS011;63468;52.058;4.824;2023-04-25T12:21:09;10.55;;;6.38;;
74908;SDS011;63468;52.058;4.824;2023-04-25T12:23:34;8.48;;;6.65;;
74908;SDS011;63468;52.058;4.824;2023-04-25T12:26:04;9.20;;;8.27;;
74908;SDS011;63468;52.058;4.824;2023-04-25T12:28:31;11.07;;;8.75;;
74908;SDS011;63468;52.058;4.824;2023-04-25T12:33:30;10.73;;;8.02;;
74908;SDS011;63468;52.058;4.824;2023-04-25T12:36:01;11.60;;;8.48;;
74908;SDS011;63468;52.058;4.824;2023-04-25T12:38:38;9.35;;;8.45;;
74908;SDS011;63468;52.058;4.824;2023-04-25T12:41:05;15.88;;;11.27;;
74908;SDS011;63468;52.058;4.824;2023-04-25T12:43:31;16.52;;;9.90;;
74908;SDS011;63468;52.058;4.824;2023-04-25T12:45:56;11.15;;;8.38;;
74908;SDS011;63468;52.058;4.824;2023-04-25T12:48:22;15.45;;;9.30;;
74908;SDS011;63468;52.058;4.824;2023-04-25T12:50:48;14.65;;;8.70;;
74908;SDS011;63468;52.058;4.824;2023-04-25T12:53:23;10.48;;;8.48;;
74908;SDS011;63468;52.058;4.824;2023-04-25T12:55:51;10.63;;;7.82;;
74908;SDS011;63468;52.058;4.824;2023-04-25T12:58:17;12.52;;;8.50;;
74908;SDS011;63468;52.058;4.824;2023-04-25T13:00:43;14.75;;;8.30;;
74908;SDS011;63468;52.058;4.824;2023-04-25T13:03:09;9.70;;;8.68;;
74908;SDS011;63468;52.058;4.824;2023-04-25T13:05:36;10.38;;;6.55;;
74908;SDS011;63468;52.058;4.824;2023-04-25T13:08:01;8.52;;;7.65;;
74908;SDS011;63468;52.058;4.824;2023-04-25T13:10:27;10.63;;;8.95;;
74908;SDS011;63468;52.058;4.824;2023-04-25T13:12:52;10.10;;;8.20;;
74908;SDS011;63468;52.058;4.824;2023-04-25T13:15:17;10.75;;;8.63;;
74908;SDS011;63468;52.058;4.824;2023-04-25T13:17:43;8.75;;;7.85;;
74908;SDS011;63468;52.058;4.824;2023-04-25T13:20:08;12.35;;;8.88;;
74908;SDS011;63468;52.058;4.824;2023-04-25T13:22:37;9.50;;;8.05;;
74908;SDS011;63468;52.058;4.824;2023-04-25T13:25:03;11.00;;;6.47;;
74908;SDS011;63468;52.058;4.824;2023-04-25T13:27:29;8.52;;;6.20;;
74908;SDS011;63468;52.058;4.824;2023-04-25T13:29:57;12.93;;;6.20;;
74908;SDS011;63468;52.058;4.824;2023-04-25T13:32:22;9.35;;;5.68;;
74908;SDS011;63468;52.058;4.824;2023-04-25T13:34:47;12.25;;;5.97;;
74908;SDS011;63468;52.058;4.824;2023-04-25T13:37:13;9.18;;;5.15;;
74908;SDS011;63468;52.058;4.824;2023-04-25T13:39:38;6.93;;;5.50;;
74908;SDS011;63468;52.058;4.824;2023-04-25T13:42:03;9.60;;;7.00;;
74908;SDS011;63468;52.058;4.824;2023-04-25T13:44:29;9.48;;;6.95;;
74908;SDS011;63468;52.058;4.824;2023-04-25T13:46:54;12.98;;;7.57;;
74908;SDS011;63468;52.058;4.824;2023-04-25T13:49:20;9.15;;;7.45;;
74908;SDS011;63468;52.058;4.824;2023-04-25T13:51:45;10.93;;;8.10;;
74908;SDS011;63468;52.058;4.824;2023-04-25T13:54:10;9.43;;;7.60;;
74908;SDS011;63468;52.058;4.824;2023-04-25T13:56:36;9.48;;;8.20;;
74908;SDS011;63468;52.058;4.824;2023-04-25T13:59:01;9.32;;;8.05;;
74908;SDS011;63468;52.058;4.824;2023-04-25T14:01:26;10.93;;;9.40;;
74908;SDS011;63468;52.058;4.824;2023-04-25T14:03:52;13.50;;;9.40;;
74908;SDS011;63468;52.058;4.824;2023-04-25T14:06:18;12.55;;;8.80;;
74908;SDS011;63468;52.058;4.824;2023-04-25T14:08:47;10.85;;;7.93;;
74908;SDS011;63468;52.058;4.824;2023-04-25T14:11:13;9.90;;;8.13;;
74908;SDS011;63468;52.058;4.824;2023-04-25T14:13:39;8.50;;;7.50;;
74908;SDS011;63468;52.058;4.824;2023-04-25T14:16:04;10.80;;;7.90;;
74908;SDS011;63468;52.058;4.824;2023-04-25T14:18:30;12.98;;;7.70;;
74908;SDS011;63468;52.058;4.824;2023-04-25T14:20:55;11.90;;;6.43;;
74908;SDS011;63468;52.058;4.824;2023-04-25T14:23:20;11.15;;;7.20;;
74908;SDS011;63468;52.058;4.824;2023-04-25T14:25:46;11.07;;;7.05;;
74908;SDS011;63468;52.058;4.824;2023-04-25T14:28:12;11.30;;;7.70;;
74908;SDS011;63468;52.058;4.824;2023-04-25T14:30:37;10.45;;;7.82;;
74908;SDS011;63468;52.058;4.824;2023-04-25T14:33:03;9.70;;;7.43;;
74908;SDS011;63468;52.058;4.824;2023-04-25T14:35:28;10.88;;;8.00;;
74908;SDS011;63468;52.058;4.824;2023-04-25T14:37:54;11.50;;;7.82;;